sensor_id;sensor_type;location;lat;lon;timestamp;P1;durP1;ratioP1;P2;durP2;ratioP2
2888;SDS011;1453;42.708;23.282;2023-12-29T00:00:00;91.10;;;52.30;;
2888;SDS011;1453;42.708;23.282;2023-12-29T00:02:26;112.78;;;57.63;;
2888;SDS011;1453;42.708;23.282;2023-12-29T00:04:52;83.73;;;48.30;;
2888;SDS011;1453;42.708;23.282;2023-12-29T00:07:18;97.67;;;53.37;;
2888;SDS011;1453;42.708;23.282;2023-12-29T00:09:44;93.63;;;49.43;;
2888;SDS011;1453;42.708;23.282;2023-12-29T00:12:10;95.83;;;51.00;;
2888;SDS011;1453;42.708;23.282;2023-12-29T00:14:39;94.00;;;54.50;;
2888;SDS011;1453;42.708;23.282;2023-12-29T00:17:06;124.40;;;63.40;;
2888;SDS011;1453;42.708;23.282;2023-12-29T00:19:32;86.60;;;49.08;;
2888;SDS011;1453;42.708;23.282;2023-12-29T00:21:58;60.30;;;37.70;;
2888;SDS011;1453;42.708;23.282;2023-12-29T00:24:25;61.85;;;37.25;;
2888;SDS011;1453;42.708;23.282;2023-12-29T00:26:51;72.32;;;39.45;;
2888;SDS011;1453;42.708;23.282;2023-12-29T00:29:17;65.30;;;37.77;;
2888;SDS011;1453;42.708;23.282;2023-12-29T00:31:43;69.53;;;38.10;;
2888;SDS011;1453;42.708;23.282;2023-12-29T00:34:09;69.87;;;36.83;;
2888;SDS011;1453;42.708;23.282;2023-12-29T00:36:35;66.73;;;38.13;;
2888;SDS011;1453;42.708;23.282;2023-12-29T00:39:01;94.50;;;49.50;;
2888;SDS011;1453;42.708;23.282;2023-12-29T00:41:27;95.40;;;55.42;;
2888;SDS011;1453;42.708;23.282;2023-12-29T00:43:53;104.47;;;54.23;;
2888;SDS011;1453;42.708;23.282;2023-12-29T00:46:19;104.53;;;54.17;;
2888;SDS011;1453;42.708;23.282;2023-12-29T00:48:45;107.33;;;55.33;;
2888;SDS011;1453;42.708;23.282;2023-12-29T00:51:11;85.72;;;48.78;;
2888;SDS011;1453;42.708;23.282;2023-12-29T00:53:37;98.77;;;54.97;;
2888;SDS011;1453;42.708;23.282;2023-12-29T00:56:09;90.43;;;54.07;;
2888;SDS011;1453;42.708;23.282;2023-12-29T00:58:36;95.90;;;53.53;;
2888;SDS011;1453;42.708;23.282;2023-12-29T01:01:02;82.47;;;47.85;;
2888;SDS011;1453;42.708;23.282;2023-12-29T01:03:28;84.28;;;45.45;;
2888;SDS011;1453;42.708;23.282;2023-12-29T01:05:55;110.97;;;57.95;;
2888;SDS011;1453;42.708;23.282;2023-12-29T01:08:20;135.40;;;67.50;;
2888;SDS011;1453;42.708;23.282;2023-12-29T01:10:46;111.77;;;55.60;;
2888;SDS011;1453;42.708;23.282;2023-12-29T01:13:12;98.93;;;52.67;;
2888;SDS011;1453;42.708;23.282;2023-12-29T01:15:38;86.13;;;46.87;;
2888;SDS011;1453;42.708;23.282;2023-12-29T01:18:05;113.90;;;62.75;;
2888;SDS011;1453;42.708;23.282;2023-12-29T01:20:31;102.10;;;55.75;;
2888;SDS011;1453;42.708;23.282;2023-12-29T01:22:57;108.53;;;59.20;;
2888;SDS011;1453;42.708;23.282;2023-12-29T01:25:23;168.87;;;93.00;;
2888;SDS011;1453;42.708;23.282;2023-12-29T01:27:49;136.87;;;71.40;;
2888;SDS011;1453;42.708;23.282;2023-12-29T01:30:15;150.87;;;79.90;;
2888;SDS011;1453;42.708;23.282;2023-12-29T01:32:41;133.07;;;69.93;;
2888;SDS011;1453;42.708;23.282;2023-12-29T01:35:07;115.83;;;61.70;;
2888;SDS011;1453;42.708;23.282;2023-12-29T01:37:33;79.93;;;48.22;;
2888;SDS011;1453;42.708;23.282;2023-12-29T01:39:59;79.37;;;44.80;;
2888;SDS011;1453;42.708;23.282;2023-12-29T01:42:25;79.33;;;39.63;;
2888;SDS011;1453;42.708;23.282;2023-12-29T01:44:51;64.30;;;36.83;;
2888;SDS011;1453;42.708;23.282;2023-12-29T01:47:19;52.13;;;27.38;;
2888;SDS011;1453;42.708;23.282;2023-12-29T01:49:47;54.63;;;27.10;;
2888;SDS011;1453;42.708;23.282;2023-12-29T01:52:16;44.42;;;23.98;;
2888;SDS011;1453;42.708;23.282;2023-12-29T01:54:43;38.10;;;23.17;;
2888;SDS011;1453;42.708;23.282;2023-12-29T01:57:11;38.20;;;22.38;;
2888;SDS011;1453;42.708;23.282;2023-12-29T01:59:37;43.75;;;26.10;;
2888;SDS011;1453;42.708;23.282;2023-12-29T02:02:04;51.45;;;30.90;;
2888;SDS011;1453;42.708;23.282;2023-12-29T02:04:30;54.83;;;26.05;;
2888;SDS011;1453;42.708;23.282;2023-12-29T02:06:56;47.10;;;26.05;;
2888;SDS011;1453;42.708;23.282;2023-12-29T02:09:22;62.90;;;36.17;;
2888;SDS011;1453;42.708;23.282;2023-12-29T02:11:48;83.07;;;44.85;;
2888;SDS011;1453;42.708;23.282;2023-12-29T02:14:15;80.82;;;42.88;;
2888;SDS011;1453;42.708;23.282;2023-12-29T02:19:37;61.83;;;36.28;;
2888;SDS011;1453;42.708;23.282;2023-12-29T02:22:09;53.60;;;32.20;;
2888;SDS011;1453;42.708;23.282;2023-12-29T02:24:36;57.63;;;33.03;;
2888;SDS011;1453;42.708;23.282;2023-12-29T02:32:41;67.00;;;37.15;;
2888;SDS011;1453;42.708;23.282;2023-12-29T02:35:19;57.55;;;35.42;;
2888;SDS011;1453;42.708;23.282;2023-12-29T02:37:49;56.03;;;34.15;;
2888;SDS011;1453;42.708;23.282;2023-12-29T02:40:15;153.48;;;71.85;;
2888;SDS011;1453;42.708;23.282;2023-12-29T02:42:45;61.00;;;32.92;;
2888;SDS011;1453;42.708;23.282;2023-12-29T02:45:14;64.25;;;39.33;;
2888;SDS011;1453;42.708;23.282;2023-12-29T02:47:41;80.07;;;47.25;;
2888;SDS011;1453;42.708;23.282;2023-12-29T02:50:08;78.43;;;42.88;;
2888;SDS011;1453;42.708;23.282;2023-12-29T02:52:35;86.95;;;43.20;;
2888;SDS011;1453;42.708;23.282;2023-12-29T02:55:02;76.65;;;39.83;;
2888;SDS011;1453;42.708;23.282;2023-12-29T02:57:28;74.38;;;43.25;;
2888;SDS011;1453;42.708;23.282;2023-12-29T02:59:55;67.38;;;38.05;;
2888;SDS011;1453;42.708;23.282;2023-12-29T03:02:24;73.25;;;41.88;;
2888;SDS011;1453;42.708;23.282;2023-12-29T03:04:50;102.60;;;52.63;;
2888;SDS011;1453;42.708;23.282;2023-12-29T03:07:16;90.65;;;50.88;;
2888;SDS011;1453;42.708;23.282;2023-12-29T03:09:42;99.20;;;52.55;;
2888;SDS011;1453;42.708;23.282;2023-12-29T03:12:08;107.47;;;56.78;;
2888;SDS011;1453;42.708;23.282;2023-12-29T03:14:34;95.13;;;54.20;;
2888;SDS011;1453;42.708;23.282;2023-12-29T03:17:00;88.10;;;47.17;;
2888;SDS011;1453;42.708;23.282;2023-12-29T03:19:26;106.60;;;55.20;;
2888;SDS011;1453;42.708;23.282;2023-12-29T03:21:52;106.20;;;57.65;;
2888;SDS011;1453;42.708;23.282;2023-12-29T03:24:19;104.13;;;56.08;;
2888;SDS011;1453;42.708;23.282;2023-12-29T03:26:45;92.53;;;51.85;;
2888;SDS011;1453;42.708;23.282;2023-12-29T03:29:12;115.23;;;57.40;;
2888;SDS011;1453;42.708;23.282;2023-12-29T03:31:38;107.93;;;56.35;;
2888;SDS011;1453;42.708;23.282;2023-12-29T03:34:04;106.13;;;55.53;;
2888;SDS011;1453;42.708;23.282;2023-12-29T03:36:31;97.03;;;53.75;;
2888;SDS011;1453;42.708;23.282;2023-12-29T03:38:57;99.22;;;55.28;;
2888;SDS011;1453;42.708;23.282;2023-12-29T03:41:23;101.03;;;56.85;;
2888;SDS011;1453;42.708;23.282;2023-12-29T03:43:49;104.13;;;54.40;;
2888;SDS011;1453;42.708;23.282;2023-12-29T03:46:24;96.72;;;53.13;;
2888;SDS011;1453;42.708;23.282;2023-12-29T03:48:51;90.75;;;56.00;;
2888;SDS011;1453;42.708;23.282;2023-12-29T03:51:18;98.07;;;55.70;;
2888;SDS011;1453;42.708;23.282;2023-12-29T03:53:45;94.82;;;50.97;;
2888;SDS011;1453;42.708;23.282;2023-12-29T03:56:15;103.80;;;55.87;;
2888;SDS011;1453;42.708;23.282;2023-12-29T03:58:43;96.85;;;52.72;;
2888;SDS011;1453;42.708;23.282;2023-12-29T04:01:10;110.15;;;57.00;;
2888;SDS011;1453;42.708;23.282;2023-12-29T04:03:41;106.35;;;52.53;;
2888;SDS011;1453;42.708;23.282;2023-12-29T04:06:08;88.40;;;49.92;;
2888;SDS011;1453;42.708;23.282;2023-12-29T04:08:34;89.40;;;50.25;;
2888;SDS011;1453;42.708;23.282;2023-12-29T04:11:01;89.15;;;49.90;;
2888;SDS011;1453;42.708;23.282;2023-12-29T04:13:28;94.68;;;49.60;;
2888;SDS011;1453;42.708;23.282;2023-12-29T04:15:56;89.68;;;48.13;;
2888;SDS011;1453;42.708;23.282;2023-12-29T04:18:22;86.45;;;49.03;;
2888;SDS011;1453;42.708;23.282;2023-12-29T04:20:49;85.97;;;47.95;;
2888;SDS011;1453;42.708;23.282;2023-12-29T04:23:15;90.55;;;49.42;;
2888;SDS011;1453;42.708;23.282;2023-12-29T04:25:42;90.00;;;49.85;;
2888;SDS011;1453;42.708;23.282;2023-12-29T04:28:08;95.85;;;48.83;;
2888;SDS011;1453;42.708;23.282;2023-12-29T04:30:34;99.65;;;49.25;;
2888;SDS011;1453;42.708;23.282;2023-12-29T04:33:00;96.78;;;51.47;;
2888;SDS011;1453;42.708;23.282;2023-12-29T04:35:26;93.03;;;46.90;;
2888;SDS011;1453;42.708;23.282;2023-12-29T04:37:52;82.10;;;47.53;;
2888;SDS011;1453;42.708;23.282;2023-12-29T04:40:19;94.47;;;49.97;;
2888;SDS011;1453;42.708;23.282;2023-12-29T04:42:45;97.40;;;51.22;;
2888;SDS011;1453;42.708;23.282;2023-12-29T04:45:11;107.93;;;53.10;;
2888;SDS011;1453;42.708;23.282;2023-12-29T04:47:37;113.05;;;53.47;;
2888;SDS011;1453;42.708;23.282;2023-12-29T04:50:03;87.88;;;50.75;;
2888;SDS011;1453;42.708;23.282;2023-12-29T04:52:33;105.95;;;56.80;;
2888;SDS011;1453;42.708;23.282;2023-12-29T04:54:59;102.28;;;55.75;;
2888;SDS011;1453;42.708;23.282;2023-12-29T04:57:25;90.03;;;51.83;;
2888;SDS011;1453;42.708;23.282;2023-12-29T04:59:51;101.80;;;55.20;;
2888;SDS011;1453;42.708;23.282;2023-12-29T05:02:17;104.93;;;55.88;;
2888;SDS011;1453;42.708;23.282;2023-12-29T05:04:44;101.93;;;53.45;;
2888;SDS011;1453;42.708;23.282;2023-12-29T05:07:11;108.75;;;55.92;;
2888;SDS011;1453;42.708;23.282;2023-12-29T05:09:37;102.17;;;55.10;;
2888;SDS011;1453;42.708;23.282;2023-12-29T05:12:03;97.90;;;53.00;;
2888;SDS011;1453;42.708;23.282;2023-12-29T05:14:29;89.28;;;52.75;;
2888;SDS011;1453;42.708;23.282;2023-12-29T05:16:55;103.07;;;56.37;;
2888;SDS011;1453;42.708;23.282;2023-12-29T05:19:21;110.30;;;59.40;;
2888;SDS011;1453;42.708;23.282;2023-12-29T05:21:47;100.13;;;59.07;;
2888;SDS011;1453;42.708;23.282;2023-12-29T05:24:16;101.03;;;55.13;;
2888;SDS011;1453;42.708;23.282;2023-12-29T05:26:42;108.50;;;60.97;;
2888;SDS011;1453;42.708;23.282;2023-12-29T05:29:08;115.27;;;66.97;;
2888;SDS011;1453;42.708;23.282;2023-12-29T05:31:34;114.20;;;59.60;;
2888;SDS011;1453;42.708;23.282;2023-12-29T05:34:00;115.47;;;57.63;;
2888;SDS011;1453;42.708;23.282;2023-12-29T05:36:25;107.63;;;56.87;;
2888;SDS011;1453;42.708;23.282;2023-12-29T05:38:51;127.78;;;60.75;;
2888;SDS011;1453;42.708;23.282;2023-12-29T05:41:18;107.20;;;56.93;;
2888;SDS011;1453;42.708;23.282;2023-12-29T05:43:44;113.80;;;60.90;;
2888;SDS011;1453;42.708;23.282;2023-12-29T05:46:10;116.80;;;59.10;;
2888;SDS011;1453;42.708;23.282;2023-12-29T05:48:37;112.32;;;58.65;;
2888;SDS011;1453;42.708;23.282;2023-12-29T05:51:08;108.03;;;57.75;;
2888;SDS011;1453;42.708;23.282;2023-12-29T05:53:35;113.93;;;59.55;;
2888;SDS011;1453;42.708;23.282;2023-12-29T05:56:02;121.43;;;60.35;;
2888;SDS011;1453;42.708;23.282;2023-12-29T05:58:28;110.07;;;56.95;;
2888;SDS011;1453;42.708;23.282;2023-12-29T06:00:54;115.25;;;58.05;;
2888;SDS011;1453;42.708;23.282;2023-12-29T06:03:21;100.93;;;53.83;;
2888;SDS011;1453;42.708;23.282;2023-12-29T06:05:47;105.65;;;52.10;;
2888;SDS011;1453;42.708;23.282;2023-12-29T06:08:14;91.32;;;51.05;;
2888;SDS011;1453;42.708;23.282;2023-12-29T06:10:40;90.57;;;51.42;;
2888;SDS011;1453;42.708;23.282;2023-12-29T06:13:06;92.55;;;50.67;;
2888;SDS011;1453;42.708;23.282;2023-12-29T06:15:32;111.80;;;54.63;;
2888;SDS011;1453;42.708;23.282;2023-12-29T06:17:58;103.23;;;52.73;;
2888;SDS011;1453;42.708;23.282;2023-12-29T06:20:24;104.35;;;53.35;;
2888;SDS011;1453;42.708;23.282;2023-12-29T06:22:50;96.28;;;53.85;;
2888;SDS011;1453;42.708;23.282;2023-12-29T06:25:16;88.70;;;51.80;;
2888;SDS011;1453;42.708;23.282;2023-12-29T06:27:43;98.28;;;53.08;;
2888;SDS011;1453;42.708;23.282;2023-12-29T06:30:09;102.57;;;54.00;;
2888;SDS011;1453;42.708;23.282;2023-12-29T06:32:38;98.78;;;52.10;;
2888;SDS011;1453;42.708;23.282;2023-12-29T06:35:05;88.07;;;52.53;;
2888;SDS011;1453;42.708;23.282;2023-12-29T06:37:31;89.82;;;49.78;;
2888;SDS011;1453;42.708;23.282;2023-12-29T06:39:58;76.05;;;47.63;;
2888;SDS011;1453;42.708;23.282;2023-12-29T06:42:24;91.78;;;48.88;;
2888;SDS011;1453;42.708;23.282;2023-12-29T06:44:50;75.10;;;48.42;;
2888;SDS011;1453;42.708;23.282;2023-12-29T06:47:16;70.60;;;47.30;;
2888;SDS011;1453;42.708;23.282;2023-12-29T06:49:42;82.67;;;45.90;;
2888;SDS011;1453;42.708;23.282;2023-12-29T06:52:08;74.18;;;46.03;;
2888;SDS011;1453;42.708;23.282;2023-12-29T06:54:34;76.53;;;47.73;;
2888;SDS011;1453;42.708;23.282;2023-12-29T06:57:00;82.00;;;46.83;;
2888;SDS011;1453;42.708;23.282;2023-12-29T06:59:26;69.30;;;44.77;;
2888;SDS011;1453;42.708;23.282;2023-12-29T07:01:52;74.20;;;45.80;;
2888;SDS011;1453;42.708;23.282;2023-12-29T07:04:18;71.73;;;44.00;;
2888;SDS011;1453;42.708;23.282;2023-12-29T07:06:44;56.80;;;38.03;;
2888;SDS011;1453;42.708;23.282;2023-12-29T07:09:10;65.10;;;41.27;;
2888;SDS011;1453;42.708;23.282;2023-12-29T07:11:36;61.33;;;38.40;;
2888;SDS011;1453;42.708;23.282;2023-12-29T07:14:02;65.07;;;41.78;;
2888;SDS011;1453;42.708;23.282;2023-12-29T07:16:28;56.33;;;38.83;;
2888;SDS011;1453;42.708;23.282;2023-12-29T07:18:54;54.42;;;37.42;;
2888;SDS011;1453;42.708;23.282;2023-12-29T07:21:20;63.83;;;38.23;;
2888;SDS011;1453;42.708;23.282;2023-12-29T07:23:46;55.00;;;35.73;;
2888;SDS011;1453;42.708;23.282;2023-12-29T07:26:12;60.47;;;36.33;;
2888;SDS011;1453;42.708;23.282;2023-12-29T07:28:38;56.83;;;36.90;;
2888;SDS011;1453;42.708;23.282;2023-12-29T07:31:04;55.90;;;36.83;;
2888;SDS011;1453;42.708;23.282;2023-12-29T07:33:30;66.43;;;41.97;;
2888;SDS011;1453;42.708;23.282;2023-12-29T07:35:56;60.00;;;42.70;;
2888;SDS011;1453;42.708;23.282;2023-12-29T07:38:23;63.60;;;45.73;;
2888;SDS011;1453;42.708;23.282;2023-12-29T07:40:49;72.97;;;44.87;;
2888;SDS011;1453;42.708;23.282;2023-12-29T07:43:15;65.63;;;44.10;;
2888;SDS011;1453;42.708;23.282;2023-12-29T07:45:43;75.23;;;50.03;;
2888;SDS011;1453;42.708;23.282;2023-12-29T07:48:09;99.00;;;59.33;;
2888;SDS011;1453;42.708;23.282;2023-12-29T07:50:34;89.13;;;57.07;;
2888;SDS011;1453;42.708;23.282;2023-12-29T07:53:02;88.47;;;57.53;;
2888;SDS011;1453;42.708;23.282;2023-12-29T07:55:29;109.60;;;58.20;;
2888;SDS011;1453;42.708;23.282;2023-12-29T07:57:56;85.40;;;52.10;;
2888;SDS011;1453;42.708;23.282;2023-12-29T08:00:22;61.83;;;46.37;;
2888;SDS011;1453;42.708;23.282;2023-12-29T08:02:48;61.60;;;41.60;;
2888;SDS011;1453;42.708;23.282;2023-12-29T08:05:15;59.60;;;39.90;;
2888;SDS011;1453;42.708;23.282;2023-12-29T08:07:42;51.53;;;35.83;;
2888;SDS011;1453;42.708;23.282;2023-12-29T08:10:08;51.83;;;35.27;;
2888;SDS011;1453;42.708;23.282;2023-12-29T08:12:34;47.27;;;33.77;;
2888;SDS011;1453;42.708;23.282;2023-12-29T08:15:01;50.90;;;34.23;;
2888;SDS011;1453;42.708;23.282;2023-12-29T08:17:28;53.43;;;36.43;;
2888;SDS011;1453;42.708;23.282;2023-12-29T08:19:56;53.50;;;36.47;;
2888;SDS011;1453;42.708;23.282;2023-12-29T08:22:22;67.20;;;37.70;;
2888;SDS011;1453;42.708;23.282;2023-12-29T08:24:48;55.93;;;38.90;;
2888;SDS011;1453;42.708;23.282;2023-12-29T08:27:14;61.60;;;38.30;;
2888;SDS011;1453;42.708;23.282;2023-12-29T08:29:48;57.33;;;39.90;;
2888;SDS011;1453;42.708;23.282;2023-12-29T08:32:14;67.90;;;40.03;;
2888;SDS011;1453;42.708;23.282;2023-12-29T08:34:40;62.90;;;41.40;;
2888;SDS011;1453;42.708;23.282;2023-12-29T08:37:06;73.50;;;44.37;;
2888;SDS011;1453;42.708;23.282;2023-12-29T08:39:32;63.20;;;43.33;;
2888;SDS011;1453;42.708;23.282;2023-12-29T08:41:58;62.20;;;41.83;;
2888;SDS011;1453;42.708;23.282;2023-12-29T08:44:24;79.37;;;48.13;;
2888;SDS011;1453;42.708;23.282;2023-12-29T08:46:50;68.47;;;46.40;;
2888;SDS011;1453;42.708;23.282;2023-12-29T08:49:16;64.03;;;46.20;;
2888;SDS011;1453;42.708;23.282;2023-12-29T08:51:42;72.93;;;47.73;;
2888;SDS011;1453;42.708;23.282;2023-12-29T08:54:08;72.20;;;46.30;;
2888;SDS011;1453;42.708;23.282;2023-12-29T08:56:34;73.30;;;48.67;;
2888;SDS011;1453;42.708;23.282;2023-12-29T08:59:00;70.47;;;46.87;;
2888;SDS011;1453;42.708;23.282;2023-12-29T09:01:26;71.40;;;47.43;;
2888;SDS011;1453;42.708;23.282;2023-12-29T09:03:52;79.70;;;51.90;;
2888;SDS011;1453;42.708;23.282;2023-12-29T09:06:18;73.33;;;49.47;;
2888;SDS011;1453;42.708;23.282;2023-12-29T09:08:45;68.30;;;49.87;;
2888;SDS011;1453;42.708;23.282;2023-12-29T09:11:11;75.87;;;51.60;;
2888;SDS011;1453;42.708;23.282;2023-12-29T09:13:36;68.50;;;48.73;;
2888;SDS011;1453;42.708;23.282;2023-12-29T09:16:02;69.73;;;49.23;;
2888;SDS011;1453;42.708;23.282;2023-12-29T09:18:29;73.03;;;51.27;;
2888;SDS011;1453;42.708;23.282;2023-12-29T09:20:55;67.27;;;48.60;;
2888;SDS011;1453;42.708;23.282;2023-12-29T09:23:21;65.10;;;47.90;;
2888;SDS011;1453;42.708;23.282;2023-12-29T09:25:47;57.60;;;44.83;;
2888;SDS011;1453;42.708;23.282;2023-12-29T09:28:13;61.30;;;43.93;;
2888;SDS011;1453;42.708;23.282;2023-12-29T09:30:39;66.27;;;48.70;;
2888;SDS011;1453;42.708;23.282;2023-12-29T09:33:05;63.10;;;45.37;;
2888;SDS011;1453;42.708;23.282;2023-12-29T09:35:31;64.43;;;46.90;;
2888;SDS011;1453;42.708;23.282;2023-12-29T09:37:57;59.47;;;42.37;;
2888;SDS011;1453;42.708;23.282;2023-12-29T09:40:24;54.53;;;42.07;;
2888;SDS011;1453;42.708;23.282;2023-12-29T09:42:51;53.87;;;44.33;;
2888;SDS011;1453;42.708;23.282;2023-12-29T09:45:19;72.97;;;49.20;;
2888;SDS011;1453;42.708;23.282;2023-12-29T09:47:52;76.87;;;51.83;;
2888;SDS011;1453;42.708;23.282;2023-12-29T09:50:20;75.67;;;53.47;;
2888;SDS011;1453;42.708;23.282;2023-12-29T09:52:48;76.80;;;54.67;;
2888;SDS011;1453;42.708;23.282;2023-12-29T09:55:17;72.83;;;54.57;;
2888;SDS011;1453;42.708;23.282;2023-12-29T09:57:44;76.73;;;55.20;;
2888;SDS011;1453;42.708;23.282;2023-12-29T10:00:15;80.33;;;57.30;;
2888;SDS011;1453;42.708;23.282;2023-12-29T10:02:41;80.80;;;56.00;;
2888;SDS011;1453;42.708;23.282;2023-12-29T10:05:08;76.90;;;57.90;;
2888;SDS011;1453;42.708;23.282;2023-12-29T10:07:37;81.57;;;54.43;;
2888;SDS011;1453;42.708;23.282;2023-12-29T10:10:05;77.27;;;54.13;;
2888;SDS011;1453;42.708;23.282;2023-12-29T10:12:32;77.90;;;53.07;;
2888;SDS011;1453;42.708;23.282;2023-12-29T10:18:01;78.00;;;55.23;;
2888;SDS011;1453;42.708;23.282;2023-12-29T10:23:34;85.77;;;56.00;;
2888;SDS011;1453;42.708;23.282;2023-12-29T10:26:11;86.63;;;57.40;;
2888;SDS011;1453;42.708;23.282;2023-12-29T10:28:38;80.57;;;56.70;;
2888;SDS011;1453;42.708;23.282;2023-12-29T10:31:04;84.60;;;59.87;;
2888;SDS011;1453;42.708;23.282;2023-12-29T10:33:30;82.40;;;59.13;;
2888;SDS011;1453;42.708;23.282;2023-12-29T10:35:58;81.73;;;60.47;;
2888;SDS011;1453;42.708;23.282;2023-12-29T10:38:27;91.13;;;61.83;;
2888;SDS011;1453;42.708;23.282;2023-12-29T10:40:54;85.63;;;62.37;;
2888;SDS011;1453;42.708;23.282;2023-12-29T10:43:37;86.07;;;63.93;;
2888;SDS011;1453;42.708;23.282;2023-12-29T10:46:05;89.43;;;65.60;;
2888;SDS011;1453;42.708;23.282;2023-12-29T10:48:33;83.20;;;65.43;;
2888;SDS011;1453;42.708;23.282;2023-12-29T10:51:00;82.77;;;64.27;;
2888;SDS011;1453;42.708;23.282;2023-12-29T10:53:29;88.13;;;63.40;;
2888;SDS011;1453;42.708;23.282;2023-12-29T10:55:59;80.87;;;64.67;;
2888;SDS011;1453;42.708;23.282;2023-12-29T10:58:29;84.53;;;66.27;;
2888;SDS011;1453;42.708;23.282;2023-12-29T11:00:57;87.23;;;66.70;;
2888;SDS011;1453;42.708;23.282;2023-12-29T11:03:27;89.17;;;68.07;;
2888;SDS011;1453;42.708;23.282;2023-12-29T11:05:59;82.53;;;65.63;;
2888;SDS011;1453;42.708;23.282;2023-12-29T11:08:26;88.50;;;68.23;;
2888;SDS011;1453;42.708;23.282;2023-12-29T11:10:53;86.63;;;71.07;;
2888;SDS011;1453;42.708;23.282;2023-12-29T11:13:20;84.67;;;66.13;;
2888;SDS011;1453;42.708;23.282;2023-12-29T11:15:47;82.97;;;66.90;;
2888;SDS011;1453;42.708;23.282;2023-12-29T11:18:14;94.17;;;71.27;;
2888;SDS011;1453;42.708;23.282;2023-12-29T11:20:41;83.83;;;69.67;;
2888;SDS011;1453;42.708;23.282;2023-12-29T11:23:10;91.67;;;71.50;;
2888;SDS011;1453;42.708;23.282;2023-12-29T11:25:40;87.43;;;67.97;;
2888;SDS011;1453;42.708;23.282;2023-12-29T11:28:08;86.90;;;67.10;;
2888;SDS011;1453;42.708;23.282;2023-12-29T11:30:37;85.53;;;67.77;;
2888;SDS011;1453;42.708;23.282;2023-12-29T11:33:26;85.27;;;67.20;;
2888;SDS011;1453;42.708;23.282;2023-12-29T11:36:16;91.03;;;71.87;;
2888;SDS011;1453;42.708;23.282;2023-12-29T11:42:05;88.47;;;72.13;;
2888;SDS011;1453;42.708;23.282;2023-12-29T11:45:23;82.67;;;69.60;;
2888;SDS011;1453;42.708;23.282;2023-12-29T11:47:53;94.30;;;73.50;;
2888;SDS011;1453;42.708;23.282;2023-12-29T11:50:36;80.13;;;69.93;;
2888;SDS011;1453;42.708;23.282;2023-12-29T11:53:05;91.83;;;71.90;;
2888;SDS011;1453;42.708;23.282;2023-12-29T11:55:37;81.43;;;70.67;;
2888;SDS011;1453;42.708;23.282;2023-12-29T11:58:05;88.63;;;71.00;;
2888;SDS011;1453;42.708;23.282;2023-12-29T12:00:51;84.53;;;70.73;;
2888;SDS011;1453;42.708;23.282;2023-12-29T12:03:19;89.23;;;68.57;;
2888;SDS011;1453;42.708;23.282;2023-12-29T12:05:53;79.93;;;66.57;;
2888;SDS011;1453;42.708;23.282;2023-12-29T12:08:28;87.63;;;68.73;;
2888;SDS011;1453;42.708;23.282;2023-12-29T12:10:56;79.43;;;69.07;;
2888;SDS011;1453;42.708;23.282;2023-12-29T12:13:44;90.90;;;72.17;;
2888;SDS011;1453;42.708;23.282;2023-12-29T12:19:11;83.30;;;73.00;;
2888;SDS011;1453;42.708;23.282;2023-12-29T12:21:38;93.20;;;68.30;;
2888;SDS011;1453;42.708;23.282;2023-12-29T12:24:04;92.30;;;71.83;;
2888;SDS011;1453;42.708;23.282;2023-12-29T12:26:31;81.67;;;66.53;;
2888;SDS011;1453;42.708;23.282;2023-12-29T12:28:58;82.67;;;67.53;;
2888;SDS011;1453;42.708;23.282;2023-12-29T12:31:24;85.83;;;65.97;;
2888;SDS011;1453;42.708;23.282;2023-12-29T12:33:58;78.40;;;67.77;;
2888;SDS011;1453;42.708;23.282;2023-12-29T12:36:31;79.57;;;69.20;;
2888;SDS011;1453;42.708;23.282;2023-12-29T12:38:57;91.17;;;68.60;;
2888;SDS011;1453;42.708;23.282;2023-12-29T12:41:24;80.93;;;67.27;;
2888;SDS011;1453;42.708;23.282;2023-12-29T12:44:13;81.07;;;65.00;;
2888;SDS011;1453;42.708;23.282;2023-12-29T12:46:40;75.37;;;58.17;;
2888;SDS011;1453;42.708;23.282;2023-12-29T12:49:10;68.50;;;57.30;;
2888;SDS011;1453;42.708;23.282;2023-12-29T12:51:36;72.93;;;58.03;;
2888;SDS011;1453;42.708;23.282;2023-12-29T12:54:02;43.37;;;36.67;;
2888;SDS011;1453;42.708;23.282;2023-12-29T12:56:28;53.00;;;42.40;;
2888;SDS011;1453;42.708;23.282;2023-12-29T12:58:59;64.13;;;48.00;;
2888;SDS011;1453;42.708;23.282;2023-12-29T13:01:28;49.63;;;39.60;;
2888;SDS011;1453;42.708;23.282;2023-12-29T13:03:56;49.90;;;38.93;;
2888;SDS011;1453;42.708;23.282;2023-12-29T13:06:23;48.00;;;40.20;;
2888;SDS011;1453;42.708;23.282;2023-12-29T13:08:50;61.70;;;41.30;;
2888;SDS011;1453;42.708;23.282;2023-12-29T13:11:19;49.67;;;41.20;;
2888;SDS011;1453;42.708;23.282;2023-12-29T13:13:50;47.80;;;40.13;;
2888;SDS011;1453;42.708;23.282;2023-12-29T13:16:32;46.60;;;36.30;;
2888;SDS011;1453;42.708;23.282;2023-12-29T13:19:20;42.67;;;36.33;;
2888;SDS011;1453;42.708;23.282;2023-12-29T13:21:52;40.80;;;31.67;;
2888;SDS011;1453;42.708;23.282;2023-12-29T13:24:23;44.20;;;34.23;;
2888;SDS011;1453;42.708;23.282;2023-12-29T13:26:51;45.20;;;33.10;;
2888;SDS011;1453;42.708;23.282;2023-12-29T13:29:21;43.80;;;33.93;;
2888;SDS011;1453;42.708;23.282;2023-12-29T13:31:56;39.23;;;32.13;;
2888;SDS011;1453;42.708;23.282;2023-12-29T13:34:30;38.30;;;31.50;;
2888;SDS011;1453;42.708;23.282;2023-12-29T13:40:14;43.43;;;33.00;;
2888;SDS011;1453;42.708;23.282;2023-12-29T13:42:55;40.47;;;32.37;;
2888;SDS011;1453;42.708;23.282;2023-12-29T13:45:25;34.63;;;30.13;;
2888;SDS011;1453;42.708;23.282;2023-12-29T13:47:52;38.23;;;31.03;;
2888;SDS011;1453;42.708;23.282;2023-12-29T13:50:19;40.13;;;30.63;;
2888;SDS011;1453;42.708;23.282;2023-12-29T13:52:46;38.80;;;28.87;;
2888;SDS011;1453;42.708;23.282;2023-12-29T13:55:12;34.63;;;27.73;;
2888;SDS011;1453;42.708;23.282;2023-12-29T13:57:47;30.37;;;25.30;;
2888;SDS011;1453;42.708;23.282;2023-12-29T14:00:19;34.87;;;25.03;;
2888;SDS011;1453;42.708;23.282;2023-12-29T14:02:57;35.20;;;27.03;;
2888;SDS011;1453;42.708;23.282;2023-12-29T14:05:39;36.30;;;24.30;;
2888;SDS011;1453;42.708;23.282;2023-12-29T14:08:26;33.70;;;27.03;;
2888;SDS011;1453;42.708;23.282;2023-12-29T14:10:59;29.30;;;21.17;;
2888;SDS011;1453;42.708;23.282;2023-12-29T14:13:25;26.40;;;19.57;;
2888;SDS011;1453;42.708;23.282;2023-12-29T14:15:52;24.33;;;17.80;;
2888;SDS011;1453;42.708;23.282;2023-12-29T14:20:47;30.63;;;22.00;;
2888;SDS011;1453;42.708;23.282;2023-12-29T14:23:13;28.50;;;19.33;;
2888;SDS011;1453;42.708;23.282;2023-12-29T14:25:42;27.53;;;20.23;;
2888;SDS011;1453;42.708;23.282;2023-12-29T14:28:15;38.47;;;19.87;;
2888;SDS011;1453;42.708;23.282;2023-12-29T14:30:48;35.47;;;18.17;;
2888;SDS011;1453;42.708;23.282;2023-12-29T14:33:15;23.20;;;17.00;;
2888;SDS011;1453;42.708;23.282;2023-12-29T14:35:41;26.90;;;16.00;;
2888;SDS011;1453;42.708;23.282;2023-12-29T14:38:07;28.17;;;17.07;;
2888;SDS011;1453;42.708;23.282;2023-12-29T14:40:33;27.57;;;18.70;;
2888;SDS011;1453;42.708;23.282;2023-12-29T14:43:00;31.47;;;19.60;;
2888;SDS011;1453;42.708;23.282;2023-12-29T14:45:29;27.33;;;17.90;;
2888;SDS011;1453;42.708;23.282;2023-12-29T14:47:55;33.83;;;18.90;;
2888;SDS011;1453;42.708;23.282;2023-12-29T14:50:25;31.03;;;19.37;;
2888;SDS011;1453;42.708;23.282;2023-12-29T14:52:51;36.03;;;19.33;;
2888;SDS011;1453;42.708;23.282;2023-12-29T14:55:17;42.50;;;17.67;;
2888;SDS011;1453;42.708;23.282;2023-12-29T14:57:45;29.23;;;16.17;;
2888;SDS011;1453;42.708;23.282;2023-12-29T15:00:11;26.27;;;15.10;;
2888;SDS011;1453;42.708;23.282;2023-12-29T15:02:38;17.30;;;12.87;;